createdAt,value
2019-05-12T00:00:19.280Z,0.00
2019-05-12T00:01:19.276Z,0.00
2019-05-12T00:02:19.218Z,0.00
2019-05-12T00:03:19.401Z,0.00
2019-05-12T00:04:19.326Z,0.00
2019-05-12T00:05:19.256Z,0.00
2019-05-12T00:06:19.294Z,0.00
2019-05-12T00:07:19.427Z,0.00
2019-05-12T00:08:19.173Z,0.00
2019-05-12T00:09:19.668Z,0.00
2019-05-12T00:10:19.225Z,0.00
2019-05-12T00:11:19.240Z,0.00
2019-05-12T00:12:19.262Z,0.00
2019-05-12T00:13:19.270Z,0.00
2019-05-12T00:14:19.216Z,0.00
2019-05-12T00:15:19.625Z,0.00
2019-05-12T00:16:20.322Z,0.00
2019-05-12T00:17:19.732Z,0.00
2019-05-12T00:18:19.970Z,0.00
2019-05-12T00:19:19.233Z,0.00
2019-05-12T00:20:19.242Z,0.00
2019-05-12T00:21:19.309Z,0.00
2019-05-12T00:22:19.249Z,0.00
2019-05-12T00:23:26.722Z,0.00
2019-05-12T00:24:19.719Z,0.00
2019-05-12T00:25:19.259Z,0.00
2019-05-12T00:26:19.281Z,0.00
2019-05-12T00:27:19.617Z,0.00
2019-05-12T00:28:19.261Z,0.00
2019-05-12T00:29:19.330Z,0.00
2019-05-12T00:30:19.239Z,0.00
2019-05-12T00:31:19.275Z,0.00
2019-05-12T00:32:19.250Z,0.00
2019-05-12T00:33:19.207Z,0.00
2019-05-12T00:34:19.269Z,0.00
2019-05-12T00:35:19.267Z,0.00
2019-05-12T00:36:19.821Z,0.00
2019-05-12T00:37:19.282Z,0.00
2019-05-12T00:38:19.445Z,0.00
2019-05-12T00:39:19.334Z,0.00
2019-05-12T00:40:19.363Z,0.00
2019-05-12T00:41:19.589Z,0.00
2019-05-12T00:42:19.830Z,0.00
2019-05-12T00:43:22.266Z,0.00
2019-05-12T00:44:19.279Z,0.00
2019-05-12T00:45:19.257Z,0.00
2019-05-12T00:46:19.287Z,0.00
2019-05-12T00:47:19.262Z,0.00
2019-05-12T00:48:19.219Z,0.00
2019-05-12T00:49:19.288Z,0.00
2019-05-12T00:50:22.035Z,0.00
2019-05-12T00:51:19.831Z,0.00
2019-05-12T00:52:19.298Z,0.00
2019-05-12T00:53:19.971Z,0.00
2019-05-12T00:54:19.359Z,0.00
2019-05-12T00:55:19.664Z,0.00
2019-05-12T00:56:19.627Z,0.00
2019-05-12T00:57:19.233Z,0.00
2019-05-12T00:58:19.756Z,0.00
2019-05-12T00:59:19.247Z,0.00
2019-05-12T01:00:20.007Z,0.00
2019-05-12T01:01:19.319Z,0.00
2019-05-12T01:02:19.278Z,0.00
2019-05-12T01:03:19.266Z,0.00
2019-05-12T01:04:19.296Z,0.00
2019-05-12T01:05:19.303Z,0.00
2019-05-12T01:06:19.239Z,0.00
2019-05-12T01:07:19.339Z,0.00
2019-05-12T01:08:19.287Z,0.00
2019-05-12T01:09:19.359Z,0.00
2019-05-12T01:10:19.367Z,0.00
2019-05-12T01:11:19.294Z,0.00
2019-05-12T01:12:19.257Z,0.00
2019-05-12T01:13:19.261Z,0.00
2019-05-12T01:14:19.407Z,0.00
2019-05-12T01:15:19.929Z,0.00
2019-05-12T01:16:21.797Z,0.00
2019-05-12T01:17:19.525Z,0.00
2019-05-12T01:18:19.802Z,0.00
2019-05-12T01:19:19.243Z,0.00
2019-05-12T01:20:19.678Z,0.00
2019-05-12T01:21:19.298Z,0.00
2019-05-12T01:22:19.876Z,0.00
2019-05-12T01:23:23.528Z,0.00
2019-05-12T01:24:19.634Z,0.00
2019-05-12T01:25:20.422Z,0.00
2019-05-12T01:26:19.308Z,0.00
2019-05-12T01:27:20.355Z,0.00
2019-05-12T01:28:19.783Z,0.00
2019-05-12T01:29:19.319Z,0.00
2019-05-12T01:30:19.348Z,0.00
2019-05-12T01:31:19.261Z,0.00
2019-05-12T01:32:19.430Z,0.00
2019-05-12T01:33:22.361Z,0.00
2019-05-12T01:34:19.719Z,0.00
2019-05-12T01:35:19.359Z,0.00
2019-05-12T01:36:19.300Z,0.00
2019-05-12T01:37:19.620Z,0.00
2019-05-12T01:38:19.431Z,0.00
2019-05-12T01:39:19.300Z,0.00
2019-05-12T01:40:20.218Z,0.00
2019-05-12T01:41:19.319Z,0.00
2019-05-12T01:42:22.546Z,0.00
2019-05-12T01:43:21.243Z,0.00
2019-05-12T01:44:19.543Z,0.00
2019-05-12T01:45:19.370Z,0.00
2019-05-12T01:46:19.638Z,0.00
2019-05-12T01:47:20.080Z,0.00
2019-05-12T01:48:19.330Z,0.00
2019-05-12T01:49:19.510Z,0.00
2019-05-12T01:50:20.450Z,0.00
2019-05-12T01:51:19.524Z,0.00
2019-05-12T01:52:19.367Z,0.00
2019-05-12T01:53:19.250Z,0.00
2019-05-12T01:54:19.624Z,0.00
2019-05-12T01:55:19.298Z,0.00
2019-05-12T01:56:19.370Z,0.00
2019-05-12T01:57:19.715Z,0.00
2019-05-12T01:58:19.679Z,0.00
2019-05-12T01:59:19.883Z,0.00
2019-05-12T02:00:19.410Z,0.00
2019-05-12T02:01:19.842Z,0.00
2019-05-12T02:02:19.266Z,0.00
2019-05-12T02:03:20.066Z,0.00
2019-05-12T02:04:22.282Z,0.00
2019-05-12T02:05:19.316Z,0.00
2019-05-12T02:06:19.682Z,0.00
2019-05-12T02:07:20.278Z,0.00
2019-05-12T02:08:19.292Z,0.00
2019-05-12T02:09:19.364Z,0.00
2019-05-12T02:10:19.382Z,0.00
2019-05-12T02:11:19.610Z,0.00
2019-05-12T02:12:19.382Z,0.00
2019-05-12T02:13:21.838Z,0.00
2019-05-12T02:14:19.282Z,0.00
2019-05-12T02:15:20.094Z,0.00
2019-05-12T02:16:19.334Z,0.00
2019-05-12T02:17:19.345Z,0.00
2019-05-12T02:18:19.384Z,0.00
2019-05-12T02:19:19.772Z,0.00
2019-05-12T02:20:19.346Z,0.00
2019-05-12T02:21:19.366Z,0.00
2019-05-12T02:22:19.458Z,0.00
2019-05-12T02:23:20.354Z,0.00
2019-05-12T02:24:26.784Z,0.00
2019-05-12T02:25:20.765Z,0.00
2019-05-12T02:26:19.304Z,0.00
2019-05-12T02:27:19.403Z,0.00
2019-05-12T02:28:19.376Z,0.00
2019-05-12T02:29:19.300Z,0.00
2019-05-12T02:30:20.575Z,0.00
2019-05-12T02:31:20.762Z,0.00
2019-05-12T02:32:19.835Z,0.00
2019-05-12T02:33:19.389Z,0.00
2019-05-12T02:34:20.356Z,0.00
2019-05-12T02:35:19.720Z,0.00
2019-05-12T02:36:19.710Z,0.00
2019-05-12T02:37:20.405Z,0.00
2019-05-12T02:38:19.747Z,0.00
2019-05-12T02:39:19.841Z,0.00
2019-05-12T02:40:19.734Z,0.00
2019-05-12T02:41:19.339Z,0.00
2019-05-12T02:42:19.303Z,0.00
2019-05-12T02:43:19.712Z,0.00
2019-05-12T02:44:19.876Z,0.00
2019-05-12T02:45:19.410Z,0.00
2019-05-12T02:46:19.597Z,0.00
2019-05-12T02:47:19.357Z,0.00
2019-05-12T02:48:20.038Z,0.00
2019-05-12T02:49:19.380Z,0.00
2019-05-12T02:50:19.387Z,0.00
2019-05-12T02:51:19.317Z,0.00
2019-05-12T02:52:20.129Z,0.00
2019-05-12T02:53:19.739Z,0.00
2019-05-12T02:54:19.920Z,0.00
2019-05-12T02:55:19.434Z,0.00
2019-05-12T02:56:25.250Z,0.00
2019-05-12T02:57:19.345Z,0.00
2019-05-12T02:58:19.349Z,0.00
2019-05-12T02:59:19.716Z,0.00
2019-05-12T03:00:19.349Z,0.00
2019-05-12T03:01:19.366Z,0.00
2019-05-12T03:02:19.359Z,0.00
2019-05-12T03:03:19.530Z,0.00
2019-05-12T03:04:20.119Z,0.00
2019-05-12T03:05:24.792Z,0.00
2019-05-12T03:06:19.346Z,0.00
2019-05-12T03:07:20.657Z,0.00
2019-05-12T03:08:19.559Z,0.00
2019-05-12T03:09:19.350Z,0.00
2019-05-12T03:10:20.154Z,0.00
2019-05-12T03:11:19.353Z,0.00
2019-05-12T03:12:19.681Z,0.00
2019-05-12T03:13:20.545Z,0.00
2019-05-12T03:14:19.720Z,0.00
2019-05-12T03:15:19.678Z,0.00
2019-05-12T03:16:19.748Z,0.00
2019-05-12T03:17:20.445Z,0.00
2019-05-12T03:18:19.365Z,0.00
2019-05-12T03:19:19.405Z,0.00
2019-05-12T03:20:19.732Z,0.00
2019-05-12T03:21:19.714Z,0.00
2019-05-12T03:22:19.552Z,0.00
2019-05-12T03:23:21.068Z,0.00
2019-05-12T03:24:19.366Z,0.19
2019-05-12T03:25:24.488Z,0.09
2019-05-12T03:26:19.431Z,0.09
2019-05-12T03:27:19.386Z,0.00
2019-05-12T03:28:19.368Z,0.00
2019-05-12T03:29:19.745Z,0.00
2019-05-12T03:30:20.551Z,0.00
2019-05-12T03:31:25.379Z,0.20
2019-05-12T03:32:19.419Z,0.03
2019-05-12T03:33:20.466Z,0.00
2019-05-12T03:34:20.638Z,0.00
2019-05-12T03:35:19.436Z,0.07
2019-05-12T03:36:19.385Z,0.00
2019-05-12T03:37:19.365Z,0.00
2019-05-12T03:38:19.456Z,0.21
2019-05-12T03:39:19.390Z,0.07
2019-05-12T03:40:19.372Z,0.00
2019-05-12T03:41:19.767Z,0.00
2019-05-12T03:42:19.421Z,0.00
2019-05-12T03:43:19.582Z,0.00
2019-05-12T03:44:19.452Z,0.00
2019-05-12T03:45:20.260Z,0.00
2019-05-12T03:46:19.321Z,0.00
2019-05-12T03:47:19.448Z,0.00
2019-05-12T03:48:19.390Z,0.00
2019-05-12T03:49:19.363Z,0.00
2019-05-12T03:50:19.783Z,0.00
2019-05-12T03:51:19.560Z,0.00
2019-05-12T03:52:19.710Z,0.00
2019-05-12T03:53:19.461Z,0.00
2019-05-12T03:54:19.413Z,0.00
2019-05-12T03:55:34.329Z,0.00
2019-05-12T03:56:20.175Z,0.00
2019-05-12T03:57:20.037Z,0.00
2019-05-12T03:58:19.901Z,0.00
2019-05-12T03:59:19.481Z,0.00
2019-05-12T04:00:20.189Z,0.00
2019-05-12T04:01:19.405Z,0.00
2019-05-12T04:02:19.823Z,0.20
2019-05-12T04:03:19.403Z,0.05
2019-05-12T04:04:19.425Z,0.01
2019-05-12T04:05:19.483Z,0.05
2019-05-12T04:06:19.425Z,0.04
2019-05-12T04:07:19.400Z,0.28
2019-05-12T04:08:19.661Z,0.06
2019-05-12T04:09:19.420Z,0.14
2019-05-12T04:10:19.413Z,0.00
2019-05-12T04:11:19.480Z,0.00
2019-05-12T04:12:19.559Z,0.27
2019-05-12T04:13:19.400Z,0.00
2019-05-12T04:14:19.360Z,0.13
2019-05-12T04:15:19.672Z,0.16
2019-05-12T04:16:19.393Z,0.30
2019-05-12T04:17:20.192Z,0.26
2019-05-12T04:18:19.458Z,0.00
2019-05-12T04:19:19.396Z,0.00
2019-05-12T04:20:19.737Z,0.00
2019-05-12T04:21:19.795Z,0.00
2019-05-12T04:22:19.421Z,0.00
2019-05-12T04:23:19.380Z,0.00
2019-05-12T04:24:19.480Z,0.00
2019-05-12T04:25:19.592Z,0.00
2019-05-12T04:26:19.466Z,0.00
2019-05-12T04:27:20.621Z,0.00
2019-05-12T04:28:19.425Z,0.00
2019-05-12T04:29:19.483Z,0.00
2019-05-12T04:30:19.904Z,0.00
2019-05-12T04:31:19.788Z,0.00
2019-05-12T04:32:19.444Z,0.00
2019-05-12T04:33:20.550Z,0.00
2019-05-12T04:34:20.349Z,0.00
2019-05-12T04:35:19.941Z,0.00
2019-05-12T04:36:20.547Z,0.00
2019-05-12T04:37:19.790Z,0.00
2019-05-12T04:38:19.746Z,0.00
2019-05-12T04:39:19.817Z,0.00
2019-05-12T04:40:20.203Z,0.00
2019-05-12T04:41:20.314Z,0.00
2019-05-12T04:42:19.499Z,0.00
2019-05-12T04:43:19.454Z,0.00
2019-05-12T04:44:19.550Z,0.00
2019-05-12T04:45:19.609Z,0.00
2019-05-12T04:46:20.087Z,0.00
2019-05-12T04:47:19.435Z,0.00
2019-05-12T04:48:21.401Z,0.00
2019-05-12T04:49:19.443Z,0.00
2019-05-12T04:50:19.461Z,0.00
2019-05-12T04:51:19.526Z,0.00
2019-05-12T04:52:19.508Z,0.00
2019-05-12T04:53:19.464Z,0.00
2019-05-12T04:54:19.399Z,0.00
2019-05-12T04:55:19.557Z,0.00
2019-05-12T04:56:20.710Z,0.00
2019-05-12T04:57:21.114Z,0.00
2019-05-12T04:58:19.453Z,0.00
2019-05-12T04:59:19.425Z,0.00
2019-05-12T05:00:19.448Z,0.00
2019-05-12T05:01:19.465Z,0.00
2019-05-12T05:02:19.449Z,0.00
2019-05-12T05:03:19.394Z,0.24
2019-05-12T05:04:20.233Z,0.00
2019-05-12T05:05:19.479Z,0.00
2019-05-12T05:06:19.516Z,0.18
2019-05-12T05:07:19.498Z,0.00
2019-05-12T05:08:20.070Z,0.00
2019-05-12T05:09:19.410Z,0.04
2019-05-12T05:10:19.729Z,0.00
2019-05-12T05:11:19.791Z,0.19
2019-05-12T05:12:20.149Z,0.00
2019-05-12T05:13:19.835Z,0.01
2019-05-12T05:14:19.471Z,0.00
2019-05-12T05:15:19.453Z,0.00
2019-05-12T05:16:20.255Z,0.00
2019-05-12T05:17:19.472Z,0.00
2019-05-12T05:18:20.292Z,0.00
2019-05-12T05:19:19.843Z,0.00
2019-05-12T05:20:19.543Z,0.00
2019-05-12T05:21:19.701Z,0.00
2019-05-12T05:22:19.563Z,0.04
2019-05-12T05:23:20.565Z,0.00
2019-05-12T05:24:19.549Z,0.00
2019-05-12T05:25:19.541Z,0.00
2019-05-12T05:26:24.509Z,0.00
2019-05-12T05:27:20.245Z,0.00
2019-05-12T05:28:20.109Z,0.00
2019-05-12T05:29:19.827Z,0.00
2019-05-12T05:30:20.131Z,0.00
2019-05-12T05:31:20.573Z,0.00
2019-05-12T05:32:19.483Z,0.00
2019-05-12T05:33:20.085Z,0.00
2019-05-12T05:34:19.521Z,0.00
2019-05-12T05:35:19.661Z,0.00
2019-05-12T05:36:20.678Z,0.00
2019-05-12T05:37:20.083Z,0.00
2019-05-12T05:38:20.846Z,0.07
2019-05-12T05:39:19.453Z,0.00
2019-05-12T05:40:28.489Z,0.00
2019-05-12T05:41:19.587Z,0.43
2019-05-12T05:42:22.165Z,0.87
2019-05-12T05:43:19.663Z,0.21
2019-05-12T05:44:19.549Z,0.48
2019-05-12T05:45:23.658Z,0.00
2019-05-12T05:46:19.535Z,0.44
2019-05-12T05:47:25.429Z,0.34
2019-05-12T05:48:19.480Z,0.39
2019-05-12T05:49:19.459Z,0.17
2019-05-12T05:50:24.960Z,0.00
2019-05-12T05:51:19.481Z,0.26
2019-05-12T05:52:19.433Z,0.03
2019-05-12T05:53:19.947Z,0.50
2019-05-12T05:54:22.735Z,0.08
2019-05-12T05:55:20.379Z,0.40
2019-05-12T05:56:19.505Z,0.61
2019-05-12T05:57:20.017Z,0.34
2019-05-12T05:58:19.485Z,0.08
2019-05-12T05:59:24.046Z,0.74
2019-05-12T06:00:23.204Z,0.28
2019-05-12T06:01:19.515Z,1.27
2019-05-12T06:02:25.475Z,0.28
2019-05-12T06:03:23.385Z,0.00
2019-05-12T06:04:19.459Z,0.58
2019-05-12T06:05:19.927Z,0.90
2019-05-12T06:06:19.569Z,0.09
2019-05-12T06:07:24.821Z,0.22
2019-05-12T06:08:20.925Z,0.46
2019-05-12T06:09:19.517Z,0.52
2019-05-12T06:10:19.503Z,0.22
2019-05-12T06:11:23.912Z,0.07
2019-05-12T06:12:19.518Z,0.15
2019-05-12T06:13:21.087Z,0.05
2019-05-12T06:14:19.525Z,0.28
2019-05-12T06:15:20.269Z,0.11
2019-05-12T06:16:20.651Z,0.78
2019-05-12T06:17:19.557Z,0.37
2019-05-12T06:18:23.964Z,0.02
2019-05-12T06:19:19.693Z,0.76
2019-05-12T06:20:19.590Z,0.38
2019-05-12T06:21:19.887Z,0.68
2019-05-12T06:22:19.508Z,0.40
2019-05-12T06:23:19.904Z,0.00
2019-05-12T06:24:20.210Z,0.64
2019-05-12T06:25:19.545Z,0.54
2019-05-12T06:26:21.013Z,0.29
2019-05-12T06:27:20.805Z,0.00
2019-05-12T06:28:19.947Z,0.46
2019-05-12T06:29:21.939Z,0.64
2019-05-12T06:30:19.577Z,0.37
2019-05-12T06:31:28.280Z,0.93
2019-05-12T06:32:19.612Z,0.52
2019-05-12T06:33:22.755Z,0.58
2019-05-12T06:34:20.983Z,0.55
2019-05-12T06:35:20.302Z,1.09
2019-05-12T06:36:22.032Z,0.44
2019-05-12T06:37:20.126Z,0.73
2019-05-12T06:38:19.783Z,1.07
2019-05-12T06:39:20.871Z,1.36
2019-05-12T06:40:20.046Z,0.65
2019-05-12T06:41:21.319Z,0.53
2019-05-12T06:42:19.567Z,0.53
2019-05-12T06:43:20.684Z,0.59
2019-05-12T06:44:19.794Z,0.08
2019-05-12T06:45:19.904Z,0.05
2019-05-12T06:46:22.980Z,0.95
2019-05-12T06:47:19.934Z,0.73
2019-05-12T06:48:28.478Z,1.64
2019-05-12T06:49:19.648Z,0.36
2019-05-12T06:50:19.837Z,0.38
2019-05-12T06:51:23.730Z,0.82
2019-05-12T06:52:19.534Z,0.62
2019-05-12T06:53:25.473Z,0.57
2019-05-12T06:54:19.630Z,0.69
2019-05-12T06:55:19.538Z,0.65
2019-05-12T06:56:19.980Z,1.23
2019-05-12T06:57:25.343Z,1.20
2019-05-12T06:58:26.288Z,0.90
2019-05-12T06:59:19.535Z,1.42
2019-05-12T07:00:22.303Z,1.32
2019-05-12T07:01:19.778Z,0.67
2019-05-12T07:02:19.652Z,0.78
2019-05-12T07:03:25.798Z,1.16
2019-05-12T07:04:21.951Z,0.64
2019-05-12T07:05:19.516Z,0.45
2019-05-12T07:06:20.053Z,0.82
2019-05-12T07:07:20.280Z,0.49
2019-05-12T07:09:24.993Z,0.50
2019-05-12T07:10:35.692Z,0.79
2019-05-12T07:11:19.889Z,0.88
2019-05-12T07:12:24.803Z,0.43
2019-05-12T07:13:23.362Z,1.31
2019-05-12T07:14:22.362Z,1.15
2019-05-12T07:15:20.875Z,1.59
2019-05-12T07:16:22.959Z,1.16
2019-05-12T07:17:20.709Z,1.56
2019-05-12T07:18:24.362Z,1.01
2019-05-12T07:19:22.658Z,0.63
2019-05-12T07:20:20.094Z,0.86
2019-05-12T07:21:22.136Z,0.71
2019-05-12T07:22:22.681Z,0.67
2019-05-12T07:23:24.773Z,0.64
2019-05-12T07:24:19.622Z,0.74
2019-05-12T07:25:24.509Z,1.02
2019-05-12T07:26:20.284Z,0.98
2019-05-12T07:27:32.259Z,0.85
2019-05-12T07:28:20.313Z,0.97
2019-05-12T07:29:20.085Z,1.05
2019-05-12T07:30:20.368Z,1.54
2019-05-12T07:31:19.605Z,0.50
2019-05-12T07:32:21.788Z,0.40
2019-05-12T07:33:19.674Z,0.90
2019-05-12T07:34:19.969Z,1.00
2019-05-12T07:35:24.045Z,0.85
2019-05-12T07:36:19.663Z,0.83
2019-05-12T07:37:19.685Z,0.93
2019-05-12T07:38:21.565Z,0.85
2019-05-12T07:39:19.673Z,0.71
2019-05-12T07:40:25.623Z,0.63
2019-05-12T07:41:20.355Z,0.55
2019-05-12T07:42:25.164Z,0.91
2019-05-12T07:43:20.844Z,0.59
2019-05-12T07:44:22.217Z,1.16
2019-05-12T07:45:22.302Z,0.74
2019-05-12T07:46:19.629Z,2.18
2019-05-12T07:47:27.247Z,1.39
2019-05-12T07:48:19.582Z,2.54
2019-05-12T07:49:22.624Z,1.53
2019-05-12T07:50:22.493Z,1.19
2019-05-12T07:51:19.559Z,0.98
2019-05-12T07:52:19.623Z,1.03
2019-05-12T07:53:19.601Z,0.44
2019-05-12T07:54:19.701Z,1.21
2019-05-12T07:55:19.743Z,1.08
2019-05-12T07:56:24.806Z,1.18
2019-05-12T07:57:19.771Z,0.47
2019-05-12T07:58:20.374Z,0.85
2019-05-12T07:59:19.601Z,1.35
2019-05-12T08:00:22.611Z,1.05
2019-05-12T08:01:20.371Z,1.17
2019-05-12T08:02:25.547Z,0.45
2019-05-12T08:03:21.160Z,0.02
2019-05-12T08:04:19.662Z,1.08
2019-05-12T08:05:21.355Z,1.46
2019-05-12T08:06:19.583Z,0.96
2019-05-12T08:07:24.966Z,0.66
2019-05-12T08:08:20.742Z,0.99
2019-05-12T08:09:24.147Z,0.51
2019-05-12T08:10:20.330Z,1.19
2019-05-12T08:11:19.761Z,0.96
2019-05-12T08:12:21.133Z,1.37
2019-05-12T08:13:19.670Z,2.35
2019-05-12T08:14:27.661Z,1.76
2019-05-12T08:15:20.070Z,1.67
2019-05-12T08:16:25.703Z,1.67
2019-05-12T08:17:19.829Z,1.18
2019-05-12T08:18:19.952Z,1.25
2019-05-12T08:19:23.994Z,0.51
2019-05-12T08:20:20.648Z,1.16
2019-05-12T08:21:20.443Z,0.56
2019-05-12T08:22:25.095Z,1.94
2019-05-12T08:23:19.638Z,1.04
2019-05-12T08:24:19.606Z,1.29
2019-05-12T08:25:27.408Z,0.82
2019-05-12T08:26:19.680Z,1.17
2019-05-12T08:27:19.639Z,1.49
2019-05-12T08:28:27.985Z,1.12
2019-05-12T08:29:21.480Z,0.94
2019-05-12T08:30:19.648Z,0.98
2019-05-12T08:31:25.863Z,1.16
2019-05-12T08:32:20.391Z,1.43
2019-05-12T08:33:19.617Z,1.36
2019-05-12T08:34:20.812Z,0.94
2019-05-12T08:35:29.414Z,1.16
2019-05-12T08:36:20.237Z,1.49
2019-05-12T08:37:19.724Z,1.32
2019-05-12T08:38:19.690Z,0.82
2019-05-12T08:39:22.906Z,1.27
2019-05-12T08:40:19.780Z,0.77
2019-05-12T08:41:19.668Z,0.98
2019-05-12T08:42:19.662Z,1.31
2019-05-12T08:43:19.713Z,0.89
2019-05-12T08:44:24.948Z,0.35
2019-05-12T08:45:25.115Z,0.77
2019-05-12T08:46:19.714Z,0.96
2019-05-12T08:47:20.044Z,0.41
2019-05-12T08:48:24.951Z,0.88
2019-05-12T08:49:19.726Z,1.03
2019-05-12T08:51:20.201Z,0.22
2019-05-12T08:52:19.729Z,0.55
2019-05-12T08:53:21.301Z,1.36
2019-05-12T08:54:20.417Z,2.07
2019-05-12T08:55:25.113Z,1.15
2019-05-12T08:56:22.941Z,0.37
2019-05-12T08:57:19.691Z,0.31
2019-05-12T08:58:30.357Z,0.41
2019-05-12T08:59:24.894Z,1.23
2019-05-12T09:00:19.654Z,0.04
2019-05-12T09:01:25.798Z,0.35
2019-05-12T09:02:20.447Z,0.05
2019-05-12T09:03:20.524Z,1.01
2019-05-12T09:04:19.776Z,0.32
2019-05-12T09:05:19.714Z,0.11
2019-05-12T09:06:20.056Z,0.03
2019-05-12T09:07:20.116Z,0.74
2019-05-12T09:08:20.445Z,0.05
2019-05-12T09:09:19.770Z,1.03
2019-05-12T09:10:19.764Z,0.93
2019-05-12T09:11:19.726Z,0.38
2019-05-12T09:12:20.658Z,0.80
2019-05-12T09:13:19.772Z,1.36
2019-05-12T09:14:19.792Z,1.43
2019-05-12T09:15:19.696Z,1.27
2019-05-12T09:16:19.674Z,1.38
2019-05-12T09:17:20.059Z,1.12
2019-05-12T09:18:19.703Z,0.70
2019-05-12T09:19:24.213Z,0.83
2019-05-12T09:20:19.764Z,0.97
2019-05-12T09:21:25.280Z,0.78
2019-05-12T09:22:20.959Z,1.78
2019-05-12T09:23:20.094Z,0.88
2019-05-12T09:24:22.784Z,0.65
2019-05-12T09:25:19.726Z,1.14
2019-05-12T09:26:24.965Z,0.76
2019-05-12T09:27:19.703Z,0.39
2019-05-12T09:28:19.705Z,0.58
2019-05-12T09:29:19.780Z,0.63
2019-05-12T09:30:19.771Z,0.66
2019-05-12T09:31:25.443Z,0.25
2019-05-12T09:32:20.185Z,0.85
2019-05-12T09:33:21.555Z,1.46
2019-05-12T09:34:19.705Z,0.85
2019-05-12T09:35:19.761Z,0.76
2019-05-12T09:36:21.545Z,0.81
2019-05-12T09:37:20.161Z,0.60
2019-05-12T09:38:21.556Z,1.40
2019-05-12T09:39:20.075Z,1.46
2019-05-12T09:40:24.392Z,0.66
2019-05-12T09:41:20.110Z,0.91
2019-05-12T09:42:24.570Z,0.71
2019-05-12T09:43:19.700Z,0.70
2019-05-12T09:44:20.283Z,0.91
2019-05-12T09:45:19.739Z,1.11
2019-05-12T09:46:20.068Z,1.62
2019-05-12T09:47:23.012Z,0.75
2019-05-12T09:48:19.775Z,0.78
2019-05-12T09:49:24.860Z,0.60
2019-05-12T09:50:20.461Z,0.79
2019-05-12T09:51:19.951Z,0.27
2019-05-12T09:52:25.548Z,0.76
2019-05-12T09:53:19.746Z,1.36
2019-05-12T09:54:19.773Z,1.72
2019-05-12T09:55:22.081Z,1.10
2019-05-12T09:56:20.533Z,0.63
2019-05-12T09:57:19.807Z,0.95
2019-05-12T09:58:25.105Z,0.26
2019-05-12T09:59:23.102Z,1.16
2019-05-12T10:00:19.758Z,0.75
2019-05-12T10:01:19.735Z,0.70
2019-05-12T10:02:20.965Z,0.65
2019-05-12T10:03:19.836Z,0.54
2019-05-12T10:04:20.083Z,0.49
2019-05-12T10:05:19.817Z,1.27
2019-05-12T10:06:21.430Z,0.72
2019-05-12T10:07:19.733Z,0.99
2019-05-12T10:08:19.965Z,0.79
2019-05-12T10:09:20.523Z,0.78
2019-05-12T10:10:19.773Z,0.36
2019-05-12T10:11:20.911Z,0.98
2019-05-12T10:12:20.021Z,1.24
2019-05-12T10:13:26.196Z,0.41
2019-05-12T10:14:20.070Z,0.27
2019-05-12T10:15:24.776Z,0.75
2019-05-12T10:16:20.473Z,0.65
2019-05-12T10:17:20.387Z,1.10
2019-05-12T10:18:19.791Z,0.74
2019-05-12T10:19:19.748Z,1.44
2019-05-12T10:20:21.561Z,1.39
2019-05-12T10:21:19.794Z,0.82
2019-05-12T10:22:20.413Z,0.41
2019-05-12T10:23:24.120Z,0.45
2019-05-12T10:24:20.162Z,1.19
2019-05-12T10:25:23.146Z,0.44
2019-05-12T10:26:19.864Z,1.10
2019-05-12T10:27:21.129Z,1.62
2019-05-12T10:28:19.787Z,0.68
2019-05-12T10:29:20.873Z,1.09
2019-05-12T10:30:19.802Z,0.31
2019-05-12T10:31:19.924Z,0.15
2019-05-12T10:32:19.766Z,1.01
2019-05-12T10:33:19.811Z,2.84
2019-05-12T10:34:20.144Z,2.19
2019-05-12T10:35:23.633Z,0.71
2019-05-12T10:36:19.849Z,1.91
2019-05-12T10:37:25.347Z,1.27
2019-05-12T10:38:20.300Z,0.85
2019-05-12T10:39:19.887Z,1.82
2019-05-12T10:40:19.813Z,1.07
2019-05-12T10:41:23.699Z,0.59
2019-05-12T10:42:20.182Z,1.65
2019-05-12T10:43:20.273Z,0.63
2019-05-12T10:44:19.775Z,0.98
2019-05-12T10:45:20.711Z,0.79
2019-05-12T10:46:26.789Z,0.62
2019-05-12T10:47:19.823Z,0.88
2019-05-12T10:48:20.027Z,0.64
2019-05-12T10:49:19.801Z,1.51
2019-05-12T10:50:19.797Z,1.06
2019-05-12T10:51:20.377Z,0.71
2019-05-12T10:52:19.784Z,1.76
2019-05-12T10:53:19.800Z,2.63
2019-05-12T10:54:20.190Z,0.84
2019-05-12T10:55:19.819Z,0.40
2019-05-12T10:56:19.830Z,1.94
2019-05-12T10:57:19.856Z,1.70
2019-05-12T10:58:19.822Z,1.10
2019-05-12T10:59:30.213Z,2.29
2019-05-12T11:00:25.288Z,1.48
2019-05-12T11:01:19.899Z,1.31
2019-05-12T11:02:25.275Z,1.28
2019-05-12T11:03:19.890Z,1.29
2019-05-12T11:04:25.001Z,2.33
2019-05-12T11:05:21.406Z,1.26
2019-05-12T11:06:19.866Z,1.25
2019-05-12T11:07:22.878Z,0.89
2019-05-12T11:08:20.344Z,0.87
2019-05-12T11:09:21.242Z,1.60
2019-05-12T11:10:20.529Z,1.27
2019-05-12T11:11:19.819Z,1.37
2019-05-12T11:12:25.145Z,1.12
2019-05-12T11:13:19.829Z,0.87
2019-05-12T11:14:25.157Z,1.56
2019-05-12T11:15:19.928Z,1.85
2019-05-12T11:16:25.166Z,1.16
2019-05-12T11:17:19.801Z,1.13
2019-05-12T11:18:24.913Z,1.05
2019-05-12T11:19:19.905Z,2.24
2019-05-12T11:20:21.508Z,2.30
2019-05-12T11:21:24.226Z,1.52
2019-05-12T11:22:19.853Z,2.75
2019-05-12T11:23:19.836Z,1.66
2019-05-12T11:24:21.786Z,1.57
2019-05-12T11:25:20.526Z,0.93
2019-05-12T11:26:19.836Z,1.31
2019-05-12T11:27:21.024Z,1.38
2019-05-12T11:28:19.889Z,0.88
2019-05-12T11:29:23.551Z,1.03
2019-05-12T11:30:20.276Z,1.18
2019-05-12T11:31:19.896Z,1.65
2019-05-12T11:32:19.985Z,0.93
2019-05-12T11:33:20.902Z,1.73
2019-05-12T11:34:19.985Z,1.32
2019-05-12T11:35:19.861Z,1.55
2019-05-12T11:36:19.903Z,1.20
2019-05-12T11:37:19.900Z,1.43
2019-05-12T11:38:19.851Z,0.89
2019-05-12T11:39:19.892Z,0.91
2019-05-12T11:40:19.928Z,0.74
2019-05-12T11:41:20.529Z,1.21
2019-05-12T11:42:19.910Z,1.11
2019-05-12T11:43:19.924Z,1.40
2019-05-12T11:44:19.907Z,1.18
2019-05-12T11:45:20.033Z,0.83
2019-05-12T11:46:19.908Z,1.12
2019-05-12T11:47:24.181Z,1.47
2019-05-12T11:48:19.969Z,1.20
2019-05-12T11:49:21.739Z,0.69
2019-05-12T11:50:20.629Z,0.66
2019-05-12T11:51:20.867Z,1.64
2019-05-12T11:52:19.901Z,1.05
2019-05-12T11:53:21.808Z,1.21
2019-05-12T11:54:19.833Z,1.48
2019-05-12T11:55:21.246Z,1.57
2019-05-12T11:56:20.233Z,1.67
2019-05-12T11:57:25.022Z,1.04
2019-05-12T11:58:20.549Z,1.06
2019-05-12T11:59:19.917Z,1.82
2019-05-12T12:00:20.199Z,2.41
2019-05-12T12:01:20.268Z,0.89
2019-05-12T12:02:25.016Z,1.01
2019-05-12T12:03:20.212Z,1.50
2019-05-12T12:04:19.924Z,0.80
2019-05-12T12:05:19.989Z,0.89
2019-05-12T12:06:19.868Z,1.93
2019-05-12T12:07:19.925Z,1.58
2019-05-12T12:08:19.874Z,2.12
2019-05-12T12:09:20.450Z,1.42
2019-05-12T12:10:19.965Z,1.23
2019-05-12T12:11:24.411Z,0.62
2019-05-12T12:12:19.885Z,1.07
2019-05-12T12:13:25.637Z,1.89
2019-05-12T12:14:19.889Z,1.84
2019-05-12T12:15:20.520Z,0.76
2019-05-12T12:16:20.667Z,1.14
2019-05-12T12:17:22.914Z,1.25
2019-05-12T12:18:20.219Z,1.26
2019-05-12T12:19:19.971Z,1.49
2019-05-12T12:20:22.474Z,1.20
2019-05-12T12:21:19.957Z,0.55
2019-05-12T12:22:25.426Z,0.96
2019-05-12T12:23:20.153Z,1.78
2019-05-12T12:24:21.307Z,1.77
2019-05-12T12:25:19.950Z,1.61
2019-05-12T12:26:20.141Z,1.94
2019-05-12T12:27:19.989Z,1.94
2019-05-12T12:28:24.165Z,1.91
2019-05-12T12:29:20.151Z,2.40
2019-05-12T12:30:20.257Z,1.38
2019-05-12T12:31:20.657Z,1.67
2019-05-12T12:32:20.548Z,1.82
2019-05-12T12:33:19.923Z,1.30
2019-05-12T12:34:23.787Z,0.48
2019-05-12T12:35:19.945Z,0.70
2019-05-12T12:36:21.076Z,2.32
2019-05-12T12:37:23.999Z,1.97
2019-05-12T12:38:19.962Z,1.36
2019-05-12T12:39:20.235Z,0.81
2019-05-12T12:40:20.046Z,0.97
2019-05-12T12:41:19.937Z,0.19
2019-05-12T12:42:19.916Z,1.38
2019-05-12T12:43:20.414Z,0.90
2019-05-12T12:44:20.216Z,0.99
2019-05-12T12:45:20.240Z,0.93
2019-05-12T12:46:21.487Z,1.51
2019-05-12T12:47:21.269Z,0.91
2019-05-12T12:48:25.545Z,1.72
2019-05-12T12:49:20.029Z,0.60
2019-05-12T12:50:25.265Z,1.71
2019-05-12T12:51:19.968Z,1.46
2019-05-12T12:52:19.935Z,1.45
2019-05-12T12:53:20.162Z,1.43
2019-05-12T12:54:19.951Z,1.22
2019-05-12T12:55:19.893Z,0.66
2019-05-12T12:56:28.260Z,0.73
2019-05-12T12:57:20.272Z,0.50
2019-05-12T12:58:21.263Z,0.79
2019-05-12T12:59:19.959Z,0.81
2019-05-12T13:00:31.826Z,0.77
2019-05-12T13:01:26.713Z,1.16
2019-05-12T13:02:20.675Z,0.36
2019-05-12T13:03:24.905Z,1.04
2019-05-12T13:04:20.361Z,1.35
2019-05-12T13:05:20.021Z,1.13
2019-05-12T13:06:19.940Z,1.80
2019-05-12T13:07:19.934Z,1.73
2019-05-12T13:08:22.377Z,2.67
2019-05-12T13:09:24.529Z,1.52
2019-05-12T13:10:20.276Z,2.44
2019-05-12T13:11:30.480Z,1.08
2019-05-12T13:12:19.975Z,1.71
2019-05-12T13:13:19.922Z,1.46
2019-05-12T13:14:20.033Z,1.16
2019-05-12T13:15:21.054Z,1.78
2019-05-12T13:16:20.050Z,1.07
2019-05-12T13:17:20.002Z,0.61
2019-05-12T13:18:24.760Z,1.06
2019-05-12T13:19:20.260Z,1.89
2019-05-12T13:20:20.038Z,1.11